Time;durP1;ratioP1;P1;durP2;ratioP2;P2;SDS_P1;SDS_P2;PMS_P1;PMS_P2;Temp;Humidity;BMP_temperature;BMP_pressure;BME280_temperature;BME280_humidity;BME280_pressure;Samples;Min_cycle;Max_cycle;Signal;HPM_P1;HPM_P2
2024/04/14 00:00:21;;;;;;;15.37;4.10;;;;;;;14.24;75.71;100864.30;1456475;89;21353;-83
2024/04/14 00:02:48;;;;;;;13.37;4.27;;;;;;;14.19;76.17;100863.47;1461994;89;21365;-81
2024/04/14 00:05:14;;;;;;;9.30;3.87;;;;;;;14.15;75.57;100866.09;1458638;89;21644;-82
2024/04/14 00:07:40;;;;;;;11.87;5.10;;;;;;;14.13;75.41;100859.29;1436539;91;21494;-83
2024/04/14 00:10:07;;;;;;;7.50;3.67;;;;;;;14.12;75.98;100868.25;1439658;91;22416;-82
2024/04/14 00:12:33;;;;;;;11.20;3.93;;;;;;;14.08;75.53;100870.91;1439463;91;21966;-83
2024/04/14 00:14:59;;;;;;;10.77;3.43;;;;;;;14.03;76.49;100873.20;1437625;91;21362;-82
2024/04/14 00:17:25;;;;;;;9.80;3.50;;;;;;;14.00;77.48;100869.86;1438240;91;22455;-82
2024/04/14 00:19:52;;;;;;;9.10;3.60;;;;;;;14.00;77.48;100869.03;1425934;91;21353;-82
2024/04/14 00:22:18;;;;;;;16.60;3.57;;;;;;;14.03;77.15;100870.55;1457730;89;21368;-82
2024/04/14 00:24:44;;;;;;;11.77;3.90;;;;;;;14.05;76.54;100869.39;1454023;89;22315;-82
2024/04/14 00:27:11;;;;;;;8.30;3.73;;;;;;;14.07;77.01;100867.89;1426159;91;21435;-83
2024/04/14 00:29:37;;;;;;;10.77;3.20;;;;;;;14.05;77.00;100859.25;1433180;91;21368;-82
2024/04/14 00:32:04;;;;;;;10.83;3.40;;;;;;;14.00;76.85;100861.88;1433690;91;21542;-82
2024/04/14 00:34:30;;;;;;;10.03;3.70;;;;;;;13.97;76.95;100856.88;1434174;91;21376;-82
2024/04/14 00:36:56;;;;;;;9.03;3.53;;;;;;;13.96;77.13;100860.54;1438533;91;21295;-82
2024/04/14 00:39:22;;;;;;;13.37;3.63;;;;;;;13.93;77.00;100862.19;1439671;91;22470;-81
2024/04/14 00:41:48;;;;;;;9.80;3.47;;;;;;;13.89;77.51;100859.49;1438359;91;21509;-82
2024/04/14 00:44:14;;;;;;;8.80;3.67;;;;;;;13.86;77.74;100855.81;1420767;91;21339;-82
2024/04/14 00:46:41;;;;;;;13.93;3.40;;;;;;;13.82;78.64;100854.48;1436524;91;21524;-82
2024/04/14 00:49:08;;;;;;;4.80;3.50;;;;;;;13.79;79.26;100847.32;1441441;91;22279;-82
2024/04/14 00:51:35;;;;;;;8.77;3.20;;;;;;;13.75;79.98;100856.09;1439435;91;21487;-82
2024/04/14 00:54:02;;;;;;;10.70;4.20;;;;;;;13.67;83.17;100854.73;1433528;91;22463;-82
2024/04/14 00:56:29;;;;;;;6.80;3.50;;;;;;;13.57;84.75;100852.66;1436630;91;21398;-82
2024/04/14 00:58:56;;;;;;;9.50;4.40;;;;;;;13.47;83.84;100852.28;1433616;91;21405;-83
2024/04/14 01:01:22;;;;;;;7.20;3.50;;;;;;;13.42;83.79;100849.75;1444408;91;21390;-82
2024/04/14 01:03:49;;;;;;;11.83;3.80;;;;;;;13.34;83.82;100855.00;1424200;91;22270;-82
2024/04/14 01:06:16;;;;;;;7.57;3.57;;;;;;;13.21;88.96;100859.38;1435941;91;21398;-82
2024/04/14 01:08:42;;;;;;;11.63;3.50;;;;;;;13.09;90.75;100859.61;1437300;91;21427;-82
2024/04/14 01:11:09;;;;;;;13.43;4.20;;;;;;;13.03;91.29;100860.70;1439105;91;21339;-81
2024/04/14 01:13:35;;;;;;;12.67;3.67;;;;;;;13.01;90.13;100854.22;1435698;91;21893;-81
2024/04/14 01:16:01;;;;;;;5.67;2.97;;;;;;;13.01;90.17;100854.22;1436168;91;21390;-82
2024/04/14 01:18:28;;;;;;;8.80;3.33;;;;;;;13.02;91.15;100856.38;1432101;91;21383;-81
2024/04/14 01:20:54;;;;;;;9.60;3.70;;;;;;;12.97;94.72;100850.19;1460861;89;21353;-80
2024/04/14 01:23:21;;;;;;;7.30;3.77;;;;;;;12.86;97.07;100852.60;1458874;89;22493;-81
2024/04/14 01:25:47;;;;;;;8.17;3.70;;;;;;;12.80;94.60;100853.22;1438545;91;21353;-81
2024/04/14 01:28:14;;;;;;;10.37;3.77;;;;;;;12.77;95.52;100851.33;1438431;91;21501;-81
2024/04/14 01:30:40;;;;;;;6.70;3.67;;;;;;;12.75;93.78;100846.69;1457408;89;21405;-81
2024/04/14 01:33:08;;;;;;;7.80;3.77;;;;;;;12.73;93.84;100841.52;1422427;89;21906;-80
2024/04/14 01:35:34;;;;;;;14.37;3.50;;;;;;;12.73;95.52;100836.20;1436648;91;21521;-81
2024/04/14 01:38:00;;;;;;;6.20;3.23;;;;;;;12.77;95.15;100828.75;1437168;91;22497;-81
2024/04/14 01:40:27;;;;;;;10.53;3.83;;;;;;;12.83;94.92;100829.47;1427153;91;21472;-81
2024/04/14 01:42:53;;;;;;;10.00;3.50;;;;;;;12.87;94.18;100822.39;1457618;89;21405;-83
2024/04/14 01:45:19;;;;;;;5.27;3.20;;;;;;;12.93;93.41;100814.30;1460258;89;22203;-83
2024/04/14 01:47:45;;;;;;;6.63;3.37;;;;;;;12.96;92.90;100821.95;1437554;91;21354;-83
2024/04/14 01:50:11;;;;;;;5.97;3.20;;;;;;;12.99;92.91;100825.63;1428965;91;21368;-82
2024/04/14 01:52:38;;;;;;;4.93;3.40;;;;;;;13.02;92.09;100831.14;1435918;91;21443;-82
2024/04/14 01:55:04;;;;;;;11.33;3.47;;;;;;;13.01;91.60;100825.00;1429547;91;21669;-82
2024/04/14 01:57:36;;;;;;;6.77;3.20;;;;;;;13.03;91.42;100828.81;1445716;91;22478;-82
2024/04/14 02:00:02;;;;;;;7.20;2.80;;;;;;;13.06;91.25;100831.16;1441157;91;21646;-82
2024/04/14 02:02:28;;;;;;;10.57;3.20;;;;;;;13.08;91.27;100828.69;1438104;91;22205;-83
2024/04/14 02:04:54;;;;;;;5.47;3.50;;;;;;;13.11;90.85;100822.23;1435144;91;21412;-81
2024/04/14 02:07:21;;;;;;;4.63;3.60;;;;;;;13.13;90.24;100823.43;1427700;91;21441;-82
2024/04/14 02:09:53;;;;;;;7.23;3.80;;;;;;;13.15;89.90;100821.42;1434931;91;21527;-82
2024/04/14 02:12:19;;;;;;;12.43;4.07;;;;;;;13.15;89.90;100809.47;1438113;91;21620;-82
2024/04/14 02:14:45;;;;;;;6.77;4.07;;;;;;;13.14;89.30;100814.45;1419742;91;21434;-82
2024/04/14 02:17:12;;;;;;;7.40;3.37;;;;;;;13.12;88.98;100815.95;1439406;91;21376;-82
2024/04/14 02:19:38;;;;;;;6.03;3.53;;;;;;;13.10;89.05;100815.27;1435000;91;21509;-82
2024/04/14 02:22:04;;;;;;;7.33;4.40;;;;;;;13.07;90.12;100812.42;1436870;91;21391;-82
2024/04/14 02:24:32;;;;;;;12.17;3.27;;;;;;;13.04;90.74;100811.41;1438109;91;21376;-82
2024/04/14 02:27:00;;;;;;;10.23;3.40;;;;;;;13.02;90.78;100804.07;1454530;89;21374;-82
2024/04/14 02:29:26;;;;;;;6.33;2.80;;;;;;;13.03;89.98;100810.22;1443133;91;22493;-82
2024/04/14 02:31:52;;;;;;;5.53;3.20;;;;;;;12.98;90.19;100802.72;1436958;91;21413;-82
2024/04/14 02:34:18;;;;;;;10.97;3.40;;;;;;;12.95;89.66;100803.03;1439679;91;21301;-82
2024/04/14 02:36:45;;;;;;;8.30;4.10;;;;;;;12.91;89.34;100802.98;1429248;91;22351;-82
2024/04/14 02:39:12;;;;;;;10.60;3.37;;;;;;;12.87;89.07;100799.80;1436674;91;21538;-82
2024/04/14 02:41:38;;;;;;;27.40;3.93;;;;;;;12.85;89.18;100802.27;1452740;89;21472;-82
2024/04/14 02:44:05;;;;;;;7.73;4.07;;;;;;;12.78;88.75;100795.92;1453417;89;21420;-82
2024/04/14 02:46:31;;;;;;;6.53;3.20;;;;;;;12.72;89.63;100804.50;1435618;91;21375;-81
2024/04/14 02:48:57;;;;;;;13.33;3.23;;;;;;;12.69;89.44;100798.14;1439109;91;22295;-81
2024/04/14 02:51:24;;;;;;;7.80;3.40;;;;;;;12.69;90.37;100806.10;1435521;91;21369;-82
2024/04/14 02:53:50;;;;;;;9.30;2.80;;;;;;;12.68;90.35;100804.45;1435879;91;21347;-81
2024/04/14 02:56:17;;;;;;;6.07;3.90;;;;;;;12.69;90.19;100799.46;1435664;91;21375;-82
2024/04/14 02:58:43;;;;;;;8.33;4.53;;;;;;;12.70;89.95;100809.12;1452235;89;21360;-82
2024/04/14 03:01:13;;;;;;;12.10;4.00;;;;;;;12.67;89.46;100806.77;1463071;89;21376;-84
2024/04/14 03:03:37;;;;;;;10.37;3.93;;;;;;;12.65;89.12;100807.73;1421582;91;21494;-85
2024/04/14 03:06:04;;;;;;;7.33;3.13;;;;;;;12.65;89.09;100798.94;1422201;91;21420;-83
2024/04/14 03:08:31;;;;;;;9.40;3.43;;;;;;;12.61;89.24;100795.77;1425662;91;21406;-84
2024/04/14 03:10:58;;;;;;;9.47;3.37;;;;;;;12.61;89.68;100798.42;1432277;91;21429;-84
2024/04/14 03:13:25;;;;;;;7.20;3.50;;;;;;;12.60;90.09;100798.55;1436614;91;21413;-83
2024/04/14 03:15:54;;;;;;;6.80;3.10;;;;;;;12.59;90.54;100800.38;1432769;91;21368;-82
2024/04/14 03:18:21;;;;;;;6.30;4.70;;;;;;;12.60;89.71;100800.73;1437101;91;22112;-80
2024/04/14 03:21:02;;;;;;;7.70;3.67;;;;;;;12.57;89.65;100801.05;1435216;91;21383;-83
2024/04/14 03:23:29;;;;;;;9.20;4.23;;;;;;;12.55;89.31;100808.32;1441490;91;21382;-82
2024/04/14 03:25:56;;;;;;;7.53;3.73;;;;;;;12.50;88.85;100803.95;1438786;91;22326;-82
2024/04/14 03:28:26;;;;;;;10.63;4.10;;;;;;;12.46;89.21;100805.72;1432869;91;21449;-83
2024/04/14 03:31:01;;;;;;;15.72;4.30;;;;;;;12.43;89.80;100809.53;1438372;89;21612;-84
2024/04/14 03:33:29;;;;;;;12.93;4.93;;;;;;;12.37;90.81;100814.09;1462545;89;21353;-84
2024/04/14 03:36:02;;;;;;;7.90;3.60;;;;;;;12.34;91.15;100811.73;1457217;89;21434;-82
2024/04/14 03:38:30;;;;;;;8.83;3.50;;;;;;;12.32;91.30;100805.77;1455759;89;21494;-83
2024/04/14 03:40:56;;;;;;;29.07;4.70;;;;;;;12.31;91.68;100805.40;1458101;89;21523;-82
2024/04/14 03:43:23;;;;;;;10.73;4.20;;;;;;;12.31;91.68;100799.59;1439480;89;21323;-83
2024/04/14 03:45:49;;;;;;;7.23;3.60;;;;;;;12.31;91.48;100795.61;1453469;89;22439;-84
2024/04/14 03:48:15;;;;;;;6.77;3.60;;;;;;;12.31;91.87;100796.11;1436057;91;21428;-85
2024/04/14 03:50:41;;;;;;;8.50;4.67;;;;;;;12.31;91.62;100792.13;1433664;91;21376;-83
2024/04/14 03:53:07;;;;;;;10.87;3.57;;;;;;;12.31;91.59;100793.45;1439228;89;21530;-83
2024/04/14 03:55:34;;;;;;;11.00;4.03;;;;;;;12.25;91.61;100788.75;1429887;91;21346;-82
2024/04/14 03:58:00;;;;;;;7.90;3.50;;;;;;;12.21;92.36;100787.39;1432694;91;21516;-81
2024/04/14 04:00:26;;;;;;;8.37;3.97;;;;;;;12.17;92.55;100787.70;1434583;91;22307;-82
2024/04/14 04:02:53;;;;;;;5.60;3.50;;;;;;;12.16;93.06;100788.66;1432994;91;21419;-82
2024/04/14 04:05:19;;;;;;;9.53;4.70;;;;;;;12.15;93.33;100789.66;1437251;91;21512;-82
2024/04/14 04:20:57;;;;;;;11.40;3.60;;;;;;;12.86;93.33;100803.96;1526430;85;28378;-84
2024/04/14 04:23:24;;;;;;;9.53;3.50;;;;;;;12.72;91.91;100804.50;1478532;88;21539;-89
2024/04/14 04:25:50;;;;;;;10.20;3.70;;;;;;;12.67;91.27;100804.11;1447189;89;21413;-85
2024/04/14 04:28:17;;;;;;;12.30;3.67;;;;;;;12.61;90.85;100798.42;1433694;91;21419;-88
2024/04/14 04:30:43;;;;;;;8.73;4.70;;;;;;;12.56;90.58;100803.34;1437175;91;21608;-86
2024/04/14 04:33:09;;;;;;;8.83;3.77;;;;;;;12.52;90.96;100801.16;1457928;89;22384;-85
2024/04/14 04:35:35;;;;;;;5.17;3.20;;;;;;;12.48;91.56;100799.27;1453445;89;21538;-86
2024/04/14 04:38:02;;;;;;;44.63;5.43;;;;;;;12.47;92.36;100804.75;1492818;86;21425;-86
2024/04/14 04:40:28;;;;;;;16.80;4.60;;;;;;;12.48;92.45;100803.25;1459924;89;21585;-85
2024/04/14 04:42:55;;;;;;;7.20;3.87;;;;;;;12.50;92.28;100803.95;1455095;89;21456;-85
2024/04/14 04:45:21;;;;;;;4.70;3.67;;;;;;;12.52;91.83;100807.30;1459218;89;21706;-83
2024/04/14 04:47:47;;;;;;;10.50;4.00;;;;;;;12.56;91.47;100803.34;1492664;87;21493;-83
2024/04/14 04:50:14;;;;;;;7.50;4.00;;;;;;;12.58;90.96;100815.16;1492336;87;21485;-83
2024/04/14 04:52:40;;;;;;;10.67;4.90;;;;;;;12.58;91.32;100814.66;1466496;88;21560;-84
2024/04/14 04:55:06;;;;;;;7.23;4.27;;;;;;;12.63;91.03;100804.92;1466753;88;22335;-83
2024/04/14 04:57:32;;;;;;;12.47;4.33;;;;;;;12.67;91.33;100800.95;1468042;88;22454;-83
2024/04/14 04:59:59;;;;;;;14.33;4.70;;;;;;;12.73;91.43;100803.50;1469640;87;21357;-83
2024/04/14 05:02:25;;;;;;;14.57;6.37;;;;;;;12.75;90.80;100798.88;1475562;88;21494;-83
2024/04/14 05:04:54;;;;;;;9.70;4.37;;;;;;;12.78;90.53;100795.92;1479012;88;22475;-83
2024/04/14 05:07:20;;;;;;;10.97;5.67;;;;;;;12.83;90.38;100793.61;1470741;88;22269;-82
2024/04/14 05:09:48;;;;;;;11.77;4.50;;;;;;;12.85;90.00;100788.48;1468002;88;21485;-83
2024/04/14 05:12:14;;;;;;;11.20;4.43;;;;;;;12.89;90.20;100790.38;1458044;87;21492;-83
2024/04/14 05:14:40;;;;;;;9.77;4.10;;;;;;;12.94;89.63;100792.05;1485275;87;21397;-83
2024/04/14 05:17:07;;;;;;;9.50;4.43;;;;;;;12.95;89.80;100793.73;1484904;87;21352;-83
2024/04/14 05:19:33;;;;;;;12.00;4.03;;;;;;;13.01;90.24;100787.80;1476888;87;21449;-85
2024/04/14 05:21:59;;;;;;;13.00;5.03;;;;;;;13.08;90.51;100781.36;1489136;87;21322;-82
2024/04/14 05:24:25;;;;;;;12.90;5.07;;;;;;;13.17;90.13;100788.89;1462738;88;21463;-82
2024/04/14 05:26:51;;;;;;;8.93;5.60;;;;;;;13.21;89.22;100809.70;1464789;89;21477;-83
2024/04/14 05:29:17;;;;;;;9.43;4.50;;;;;;;13.21;88.66;100803.06;1470943;87;22313;-83
2024/04/14 05:31:44;;;;;;;12.63;6.60;;;;;;;13.24;88.37;100804.58;1467127;89;21456;-83
2024/04/14 05:34:10;;;;;;;14.83;5.73;;;;;;;13.27;88.21;100806.95;1466352;89;21676;-82
2024/04/14 05:36:36;;;;;;;10.07;5.53;;;;;;;13.34;87.68;100812.47;1482301;88;21419;-83
2024/04/14 05:39:02;;;;;;;14.53;5.53;;;;;;;13.40;87.44;100806.02;1483258;87;21351;-83
2024/04/14 05:41:30;;;;;;;10.93;5.37;;;;;;;13.51;87.43;100804.43;1470103;89;21448;-83
2024/04/14 05:43:56;;;;;;;10.20;5.23;;;;;;;13.60;87.42;100809.80;1469912;89;22358;-82
2024/04/14 05:46:22;;;;;;;11.27;4.73;;;;;;;13.69;86.91;100812.84;1486985;87;21389;-84
2024/04/14 05:48:49;;;;;;;13.13;5.13;;;;;;;13.81;86.44;100816.05;1481075;87;21522;-82
2024/04/14 05:51:15;;;;;;;16.70;5.80;;;;;;;13.91;85.77;100816.27;1485654;87;22253;-83
2024/04/14 05:53:41;;;;;;;10.93;5.30;;;;;;;14.03;84.77;100816.81;1473961;89;21583;-85
2024/04/14 05:56:08;;;;;;;10.17;4.67;;;;;;;14.13;84.56;100809.55;1498984;87;21592;-84
2024/04/14 05:58:34;;;;;;;10.10;5.53;;;;;;;14.25;83.40;100819.90;1508739;86;22297;-84
2024/04/14 06:01:08;;;;;;;9.17;4.77;;;;;;;14.32;81.98;100820.40;1500487;87;21706;-84
2024/04/14 06:03:34;;;;;;;15.03;5.90;;;;;;;14.42;81.60;100819.77;1503690;87;21470;-84
2024/04/14 06:06:01;;;;;;;17.30;5.00;;;;;;;14.54;81.11;100816.33;1497220;86;21746;-83
2024/04/14 06:08:27;;;;;;;6.73;4.70;;;;;;;14.67;80.26;100821.16;1483807;87;21493;-84
2024/04/14 06:10:54;;;;;;;18.03;5.63;;;;;;;14.77;79.88;100821.03;1465185;89;21419;-84
2024/04/14 06:13:20;;;;;;;9.53;4.90;;;;;;;14.95;80.44;100822.20;1506419;86;21456;-85
2024/04/14 06:15:46;;;;;;;19.30;6.13;;;;;;;15.09;79.16;100822.86;1493910;87;22405;-82
2024/04/14 06:18:12;;;;;;;9.33;4.53;;;;;;;15.21;78.71;100824.68;1500432;86;21529;-84
2024/04/14 06:20:39;;;;;;;9.50;4.70;;;;;;;15.30;77.41;100832.49;1453166;89;21607;-84
2024/04/14 06:23:06;;;;;;;15.37;5.07;;;;;;;15.46;77.78;100821.48;1467998;89;21412;-85
2024/04/14 06:25:33;;;;;;;16.13;5.50;;;;;;;15.64;77.57;100823.44;1442040;90;21493;-83
2024/04/14 06:27:59;;;;;;;11.43;4.20;;;;;;;15.85;77.05;100822.06;1460807;89;21581;-82
2024/04/14 06:30:25;;;;;;;12.77;4.80;;;;;;;16.03;75.92;100818.67;1436395;90;21685;-84
2024/04/14 06:32:52;;;;;;;10.37;4.40;;;;;;;16.15;73.80;100818.61;1469924;89;21509;-85
2024/04/14 06:35:19;;;;;;;7.07;4.27;;;;;;;16.26;72.96;100820.57;1438235;90;21418;-85
2024/04/14 06:37:45;;;;;;;6.57;5.20;;;;;;;16.36;71.99;100817.16;1455297;89;21464;-86
2024/04/14 06:40:13;;;;;;;7.80;4.43;;;;;;;16.40;70.89;100820.66;1438778;90;22109;-88
2024/04/14 06:42:39;;;;;;;13.37;5.00;;;;;;;16.51;71.14;100822.58;1460903;89;21470;-85
2024/04/14 06:45:07;;;;;;;6.07;3.93;;;;;;;16.65;71.23;100827.98;1454838;90;21434;-87
2024/04/14 06:47:33;;;;;;;8.37;4.00;;;;;;;16.79;69.66;100825.59;1459421;89;21405;-85
2024/04/14 06:49:59;;;;;;;9.43;3.93;;;;;;;16.92;68.73;100833.86;1465751;89;21662;-85
2024/04/14 06:52:25;;;;;;;9.17;4.30;;;;;;;17.06;67.53;100826.87;1447071;90;22314;-84
2024/04/14 06:54:51;;;;;;;7.87;3.70;;;;;;;17.16;67.22;100816.77;1471267;89;21515;-86
2024/04/14 06:57:17;;;;;;;10.20;4.30;;;;;;;17.30;66.83;100815.96;1438076;90;21456;-88
2024/04/14 06:59:44;;;;;;;9.27;3.80;;;;;;;17.45;66.55;100814.64;1455874;89;22417;-88
2024/04/14 07:02:10;;;;;;;9.00;4.03;;;;;;;17.64;65.87;100812.45;1440163;90;21685;-86
2024/04/14 07:04:36;;;;;;;13.37;4.20;;;;;;;17.78;64.51;100810.28;1445779;89;21545;-88
2024/04/14 07:07:03;;;;;;;7.37;3.77;;;;;;;17.92;64.42;100808.11;1438713;90;21619;-87
2024/04/14 07:09:29;;;;;;;18.37;4.20;;;;;;;18.07;63.84;100807.25;1462480;89;21455;-87
2024/04/14 07:11:55;;;;;;;13.97;4.13;;;;;;;18.27;63.58;100805.67;1431012;90;21434;-87
2024/04/14 07:14:24;;;;;;;15.23;4.03;;;;;;;18.45;61.63;100806.58;1458961;89;21606;-87
2024/04/14 07:16:50;;;;;;;7.87;4.57;;;;;;;18.62;61.74;100804.48;1440628;90;21589;-86
2024/04/14 07:19:17;;;;;;;12.57;3.40;;;;;;;18.77;61.35;100799.09;1454012;89;22381;-87
2024/04/14 07:21:43;;;;;;;15.77;4.10;;;;;;;18.94;61.03;100791.91;1429069;90;21485;-87
2024/04/14 07:24:09;;;;;;;8.23;4.08;;;;;;;19.11;60.10;100790.30;1457010;89;21575;-90
2024/04/14 07:26:36;;;;;;;8.05;4.10;;;;;;;19.27;59.64;100794.02;1459536;89;21751;-88
2024/04/14 07:29:02;;;;;;;11.03;4.45;;;;;;;19.47;59.67;100787.95;1445165;89;21478;-88
2024/04/14 07:31:28;;;;;;;11.03;3.17;;;;;;;19.66;58.91;100787.28;1442428;89;22335;-92
2024/04/14 07:34:03;;;;;;;24.45;4.45;;;;;;;19.86;58.88;100784.70;1458064;89;21509;-88
2024/04/14 07:36:29;;;;;;;17.10;4.25;;;;;;;20.05;56.95;100780.41;1445889;89;21627;-88
2024/04/14 07:38:55;;;;;;;8.58;4.05;;;;;;;20.23;57.72;100779.87;1461681;89;22956;-91
2024/04/14 07:41:22;;;;;;;12.73;3.80;;;;;;;20.37;57.00;100770.81;1437533;89;21419;-89
2024/04/14 07:43:49;;;;;;;16.10;4.22;;;;;;;20.52;55.90;100774.66;1459888;89;21678;-89
2024/04/14 07:46:15;;;;;;;13.93;4.45;;;;;;;20.64;55.40;100774.39;1451638;89;21544;-88
2024/04/14 07:48:42;;;;;;;13.03;4.47;;;;;;;20.75;54.27;100778.86;1463073;89;21522;-89
2024/04/14 07:51:09;;;;;;;7.15;4.03;;;;;;;20.83;53.99;100774.59;1459712;89;21501;-88
2024/04/14 07:53:35;;;;;;;10.78;3.47;;;;;;;20.93;53.29;100775.03;1458829;89;22285;-82
2024/04/14 07:56:01;;;;;;;16.67;3.55;;;;;;;21.00;53.01;100769.11;1463177;89;21613;-86
2024/04/14 07:58:27;;;;;;;8.35;3.30;;;;;;;21.05;51.70;100761.77;1466987;89;21457;-84
2024/04/14 08:00:54;;;;;;;15.68;4.00;;;;;;;21.13;52.02;100765.08;1456800;89;22394;-85
2024/04/14 08:03:20;;;;;;;12.47;3.47;;;;;;;21.22;51.61;100755.44;1454948;89;21405;-84
2024/04/14 08:05:46;;;;;;;17.10;4.20;;;;;;;21.32;51.61;100752.63;1426985;89;21412;-85
2024/04/14 08:08:12;;;;;;;6.85;3.35;;;;;;;21.38;50.62;100742.92;1462667;89;22539;-85
2024/04/14 08:10:39;;;;;;;9.65;3.87;;;;;;;21.50;50.55;100748.48;1453821;89;21559;-83
2024/04/14 08:13:05;;;;;;;12.93;4.08;;;;;;;21.68;50.29;100730.28;1454550;89;21464;-84
2024/04/14 08:15:31;;;;;;;6.55;3.50;;;;;;;21.68;50.29;100730.28;1456621;89;21558;-84
2024/04/14 08:17:58;;;;;;;9.48;3.75;;;;;;;21.90;49.91;100734.86;1432629;89;22322;-84
2024/04/14 08:20:25;;;;;;;12.15;3.90;;;;;;;22.03;49.82;100732.91;1467189;88;21441;-84
2024/04/14 08:22:51;;;;;;;9.60;3.52;;;;;;;22.19;49.53;100729.45;1463949;89;21597;-84
2024/04/14 08:25:17;;;;;;;13.50;2.85;;;;;;;22.38;48.99;100736.55;1461430;89;21671;-85
2024/04/14 08:27:44;;;;;;;6.42;3.58;;;;;;;22.53;48.23;100747.88;1438580;89;21601;-84
2024/04/14 08:30:10;;;;;;;12.23;3.02;;;;;;;22.65;48.03;100741.25;1463144;89;21552;-83
2024/04/14 08:32:36;;;;;;;11.03;3.00;;;;;;;22.80;47.71;100734.70;1428872;90;21374;-84
2024/04/14 08:35:03;;;;;;;13.80;3.92;;;;;;;22.96;47.51;100733.66;1458745;89;21500;-84
2024/04/14 08:37:29;;;;;;;11.55;3.42;;;;;;;23.15;47.16;100728.27;1465830;89;22609;-85
2024/04/14 08:39:56;;;;;;;16.50;2.70;;;;;;;23.31;46.84;100726.88;1462158;89;21450;-86
2024/04/14 08:42:22;;;;;;;16.02;3.20;;;;;;;23.42;46.11;100714.80;1434989;89;21472;-85
2024/04/14 08:44:50;;;;;;;18.35;2.80;;;;;;;23.61;46.26;100716.13;1460174;89;21651;-85
2024/04/14 08:47:18;;;;;;;15.08;2.87;;;;;;;23.86;45.66;100713.35;1459767;89;21493;-86
2024/04/14 08:49:45;;;;;;;9.33;3.02;;;;;;;24.06;44.71;100708.48;1438974;89;22394;-85
2024/04/14 08:52:14;;;;;;;10.32;3.17;;;;;;;24.25;44.09;100707.88;1432796;89;21456;-84
2024/04/14 08:54:40;;;;;;;9.13;3.30;;;;;;;24.41;43.60;100706.94;1446414;90;21590;-84
2024/04/14 08:57:08;;;;;;;7.03;2.90;;;;;;;24.49;43.04;100703.94;1451979;89;21626;-84
2024/04/14 08:59:40;;;;;;;14.03;3.05;;;;;;;24.58;42.75;100705.23;1461206;89;21516;-84
2024/04/14 09:02:11;;;;;;;8.45;2.50;;;;;;;24.69;42.22;100705.78;1463213;89;21486;-84
2024/04/14 09:04:39;;;;;;;11.60;2.80;;;;;;;24.79;41.39;100699.77;1460543;89;21677;-85
2024/04/14 09:07:06;;;;;;;10.30;2.83;;;;;;;24.88;41.18;100693.47;1459474;89;21509;-83
2024/04/14 09:09:32;;;;;;;16.80;3.62;;;;;;;25.01;41.45;100698.66;1451389;89;21622;-85
2024/04/14 09:12:00;;;;;;;11.85;2.80;;;;;;;25.15;41.08;100691.97;1460596;89;21500;-84
2024/04/14 09:14:26;;;;;;;10.43;2.17;;;;;;;25.19;40.13;100698.54;1427413;90;21686;-85
2024/04/14 09:16:57;;;;;;;5.33;2.37;;;;;;;25.33;40.13;100689.62;1437331;89;21523;-84
2024/04/14 09:19:23;;;;;;;12.70;3.37;;;;;;;25.39;40.09;100683.79;1455452;89;22255;-85
2024/04/14 09:21:50;;;;;;;16.85;2.60;;;;;;;25.51;39.88;100679.16;1458635;88;21501;-84
2024/04/14 09:24:16;;;;;;;17.17;3.12;;;;;;;25.64;38.74;100685.66;1461331;89;21578;-81
2024/04/14 09:26:44;;;;;;;9.65;2.42;;;;;;;25.68;37.85;100674.34;1441396;89;21656;-84
2024/04/14 09:29:11;;;;;;;14.28;3.67;;;;;;;25.64;37.82;100672.11;1457402;89;21485;-84
2024/04/14 09:31:37;;;;;;;13.05;2.60;;;;;;;25.66;37.21;100662.37;1456355;89;21663;-83
2024/04/14 09:34:05;;;;;;;9.95;2.35;;;;;;;25.75;38.00;100665.52;1452745;89;22314;-83
2024/04/14 09:36:32;;;;;;;10.82;3.02;;;;;;;25.81;37.74;100652.38;1459423;89;21530;-83
2024/04/14 09:39:01;;;;;;;22.98;4.30;;;;;;;25.86;37.86;100661.42;1457815;89;21433;-82
2024/04/14 09:41:27;;;;;;;10.00;2.23;;;;;;;25.83;38.44;100658.38;1459924;89;21471;-85
2024/04/14 09:43:55;;;;;;;15.72;2.08;;;;;;;25.83;37.90;100651.61;1440776;89;22216;-83
2024/04/14 09:46:22;;;;;;;19.52;2.92;;;;;;;25.87;37.24;100652.78;1429203;89;21464;-84
2024/04/14 09:48:50;;;;;;;18.82;2.85;;;;;;;25.91;37.33;100648.50;1442370;89;21492;-84
2024/04/14 09:51:18;;;;;;;18.77;2.90;;;;;;;25.97;36.53;100635.32;1429000;89;22351;-84
2024/04/14 09:53:45;;;;;;;15.68;2.83;;;;;;;25.97;36.40;100640.75;1424317;89;21478;-85
2024/04/14 09:56:12;;;;;;;18.50;3.22;;;;;;;26.11;36.79;100641.27;1464072;89;21442;-83
2024/04/14 09:58:38;;;;;;;25.05;2.98;;;;;;;26.16;36.09;100648.67;1437305;89;21696;-84
2024/04/14 10:01:09;;;;;;;21.17;1.87;;;;;;;26.17;35.90;100642.17;1444301;89;22447;-82
2024/04/14 10:03:37;;;;;;;8.03;2.47;;;;;;;26.20;36.27;100638.96;1444021;90;21600;-81
2024/04/14 10:06:04;;;;;;;37.10;4.17;;;;;;;26.16;35.13;100627.79;1429211;90;22364;-87
2024/04/14 10:08:32;;;;;;;11.60;2.12;;;;;;;26.18;35.25;100646.52;1464072;89;22417;-82
2024/04/14 10:11:00;;;;;;;19.87;3.33;;;;;;;26.20;35.83;100624.05;1453894;89;21689;-85
2024/04/14 10:13:26;;;;;;;18.20;3.30;;;;;;;26.26;36.08;100632.55;1433474;89;21626;-81
2024/04/14 10:15:57;;;;;;;25.80;2.98;;;;;;;26.38;35.88;100619.71;1457788;89;21478;-84
2024/04/14 10:18:28;;;;;;;20.40;2.52;;;;;;;26.32;35.42;100618.81;1450793;89;22494;-83
2024/04/14 10:20:57;;;;;;;16.00;2.37;;;;;;;26.42;35.38;100608.67;1457455;89;21516;-84
2024/04/14 10:23:25;;;;;;;11.53;2.55;;;;;;;26.46;35.26;100610.34;1450014;89;21485;-84
2024/04/14 10:25:52;;;;;;;5.95;1.90;;;;;;;26.62;35.50;100615.51;1435328;89;21463;-84
2024/04/14 10:28:21;;;;;;;16.90;2.25;;;;;;;26.68;35.28;100606.36;1496591;87;22485;-84
2024/04/14 10:30:59;;;;;;;35.50;3.87;;;;;;;26.73;35.04;100614.58;1424735;89;21626;-87
2024/04/14 10:33:27;;;;;;;32.60;3.25;;;;;;;26.67;34.55;100608.26;1456938;89;22462;-86
2024/04/14 10:36:03;;;;;;;16.05;2.87;;;;;;;26.61;34.41;100632.84;1462967;89;21368;-83
2024/04/14 10:38:34;;;;;;;11.60;3.60;;;;;;;26.59;34.32;100599.72;1456091;89;21500;-84
2024/04/14 10:41:01;;;;;;;16.48;3.17;;;;;;;26.62;35.01;100603.30;1484983;87;21477;-86
2024/04/14 10:43:27;;;;;;;30.60;3.85;;;;;;;26.64;35.13;100591.62;1491172;87;21441;-84
2024/04/14 10:46:01;;;;;;;15.55;2.55;;;;;;;26.64;35.48;100580.77;1472009;87;21589;-85
2024/04/14 10:52:35;;;;;;;27.90;3.02;;;;;;;26.71;36.03;100580.07;1454730;89;21982;-84
2024/04/14 10:59:02;;;;;;;19.55;3.08;;;;;;;26.74;36.20;100574.14;1464477;89;22445;-84
2024/04/14 11:01:28;;;;;;;11.63;2.42;;;;;;;26.82;36.52;100576.96;1456424;89;21612;-83
2024/04/14 11:03:55;;;;;;;20.30;2.75;;;;;;;26.82;36.42;100566.92;1451941;89;21492;-84
2024/04/14 11:06:23;;;;;;;18.55;3.42;;;;;;;26.95;36.92;100569.23;1467677;87;22468;-82
2024/04/14 11:08:50;;;;;;;20.62;2.70;;;;;;;27.11;35.82;100571.62;1492998;87;21478;-82
2024/04/14 11:11:17;;;;;;;14.13;2.87;;;;;;;27.16;36.59;100572.22;1457084;89;22528;-84
2024/04/14 11:13:43;;;;;;;10.75;2.55;;;;;;;27.16;36.32;100558.64;1489256;87;22586;-85
2024/04/14 11:16:09;;;;;;;29.60;3.17;;;;;;;27.27;34.81;100551.44;1490159;87;21390;-84
2024/04/14 11:18:36;;;;;;;8.68;3.45;;;;;;;27.30;34.72;100573.47;1456171;89;21470;-85
2024/04/14 11:21:02;;;;;;;20.08;2.75;;;;;;;27.31;34.27;100542.53;1458605;89;21486;-84
2024/04/14 11:23:29;;;;;;;9.85;2.40;;;;;;;27.30;34.27;100544.94;1462816;89;21656;-82
2024/04/14 11:25:59;;;;;;;25.45;4.17;;;;;;;27.39;34.63;100542.08;1448412;90;21384;-83
2024/04/14 11:28:26;;;;;;;11.65;3.22;;;;;;;27.47;34.22;100544.03;1467192;89;21485;-81
2024/04/14 11:31:09;;;;;;;20.30;3.17;;;;;;;27.49;33.80;100536.45;1439849;90;21598;-84
2024/04/14 11:33:40;;;;;;;4.90;2.70;;;;;;;27.51;33.75;100524.79;1434103;89;21559;-83
2024/04/14 11:36:11;;;;;;;20.68;2.72;;;;;;;27.56;33.08;100522.09;1442884;90;21492;-83
2024/04/14 11:38:38;;;;;;;11.40;2.40;;;;;;;27.55;32.83;100521.28;1457554;89;21671;-84